Grand Prairie, TX

11:22 PM CDT on July 03, 2015 (GMT -0500)
North Central | | Change Station
CLOSE
Current Station
Personal Weather Station
Location: Grand Prairie, TX
Elevation: 480 ft
Nearby Weather Stations
Active Advisory: Flood Warning

Elev 480 ft 32.76 °N, 97.02 °W | Updated 27 seconds ago

Partly Cloudy
Partly Cloudy
84.7 °F
Feels Like 86 °F
N
0.0
Wind Variable Wind from North
Gusts 0.0 mph

Today
High -- | Low -- °F
--% Chance of Precip.
Yesterday
High -- | Low -- °F
Precip. -- in
6:24 AM 8:39 PM
Waning Gibbous, 94% visible
Pressure 29.94 in
Visibility 10.0 miles
Clouds Clear
Heat Index 86 °F
Dew Point 64 °F
Humidity 50%
Rainfall 0.00 in
Snow Depth Not available.
UV 0 out of 12
Pollen 3.60 out of 12
Air Quality Not available.
Flu Activity Not available.
METAR KGPM 040415Z AUTO 17003KT 10SM CLR 28/22 A2994 RMK AO2 T02820215

More Conditions Fewer Conditions

Pressure 29.94 in
Visibility 10.0 miles
Clouds Clear
Heat Index 86 °F
Dew Point 64 °F
Humidity 50%
Rainfall 0.00 in
Snow Depth Not available.
UV 0 out of 12
Pollen 3.60 out of 12
Air Quality Not available.
Flu Activity Not available.
METAR KGPM 040415Z AUTO 17003KT 10SM CLR 28/22 A2994 RMK AO2 T02820215

More Conditions Fewer Conditions

10-Day Weather Forecast

×

Almanac

Astronomy

Jul. 03, 2015 Rise Set
Actual Time
Civil Twilight
Nautical Twilight
Astronomical Twilight
Moon
Length of Visible Light
Length of Day
Tomorrow will be .
, % of the Moon is Illuminated

Today's Extremes

State Highs State Lows

Community

WunderPhotos

Upload Photos

1,834,930 photos uploaded!

WunderBlogs® & News

Nearby

Air Quality

  Air Quality AQ Index Pollutant
Not available.

Snow Depth

Station Depth Elevation

Earthquake Activity

City Distance Mag. Time & Date
Minimum magnitude displayed is 2.5.

Coastal Water Temperatures

Place Temperature

Stations

Nearby Weather Stations

Station Location Temp. Windchill Dew Point Humidity Wind Precip. Elev Updated Type
                   
Flood Warning
Statement as of 8:26 PM CDT on July 03, 2015

The Flood Warning continues for
the Trinity River at Dallas.
* At 0800 PM Friday the stage was 27.65 feet.
* Flood stage is 30 feet.
* Minor flooding is forecast.
* Forecast... the river is expected to rise above flood stage by
Sunday night and crest near 31 feet by Monday evening.
* At 30 feet, minor lowland flooding will begin. The Pasture lands
near the river will flood.


Lat... Lon 3275 9693 3281 9693 3283 9683 3275 9671
      3269 9676 3278 9687




826 PM CDT Fri Jul 3 2015

The Flood Warning continues for
the Elm Fork Trinity River near Carrollton.
* At 0715 PM Friday the stage was 7.97 feet.
* Flood stage is 8 feet.
* Minor flooding is forecast.
* Forecast... the river is expected to rise above flood stage by
Friday evening and crest near 8 feet by Saturday evening.
* At 8 feet, minor flooding will occur downstream from the gage.


Lat... Lon 3300 9700 3287 9699 3287 9687 3300 9688